Time;durP1;ratioP1;P1;durP2;ratioP2;P2;SDS_P1;SDS_P2;PMS_P1;PMS_P2;Temp;Humidity;BMP_temperature;BMP_pressure;BME280_temperature;BME280_humidity;BME280_pressure;Samples;Min_cycle;Max_cycle;Signal;HPM_P1;HPM_P2
2020/12/21 00:02:27;;;;;;;45.03;15.48;;;4.10;99.90;;;;;;4887040;28;20093;-85
2020/12/21 00:04:51;;;;;;;43.63;15.43;;;4.20;99.90;;;;;;4902648;28;20094;-86
2020/12/21 00:07:19;;;;;;;41.50;16.23;;;4.20;99.90;;;;;;4899053;28;20076;-86
2020/12/21 00:09:49;;;;;;;38.72;14.88;;;4.10;99.90;;;;;;4892881;28;20094;-86
2020/12/21 00:12:12;;;;;;;38.25;14.43;;;4.10;99.90;;;;;;4904324;28;20087;-87
2020/12/21 00:14:37;;;;;;;44.55;14.85;;;4.20;99.90;;;;;;4902478;28;20084;-87
2020/12/21 00:17:01;;;;;;;40.33;15.30;;;4.20;99.90;;;;;;4907974;28;20083;-86
2020/12/21 00:19:38;;;;;;;37.65;13.85;;;4.20;99.90;;;;;;4887017;28;20145;-87
2020/12/21 00:22:11;;;;;;;45.85;15.30;;;4.20;99.90;;;;;;4902506;28;20147;-86
2020/12/21 00:24:34;;;;;;;43.25;15.43;;;4.20;99.90;;;;;;4904187;28;20090;-86
2020/12/21 00:27:03;;;;;;;54.47;17.30;;;4.10;99.90;;;;;;4905167;28;20088;-86
2020/12/21 00:29:41;;;;;;;42.47;15.43;;;4.10;99.90;;;;;;4889145;28;20859;-86
2020/12/21 00:32:04;;;;;;;39.63;14.77;;;4.20;99.90;;;;;;4896975;28;20110;-86
2020/12/21 00:34:27;;;;;;;46.67;15.43;;;4.10;99.90;;;;;;4897881;28;20145;-86
2020/12/21 00:36:53;;;;;;;44.45;15.50;;;4.10;99.90;;;;;;4900312;28;20441;-86
2020/12/21 00:39:20;;;;;;;45.90;15.60;;;4.20;99.90;;;;;;4891457;28;20091;-86
2020/12/21 00:41:56;;;;;;;41.55;14.88;;;4.20;99.90;;;;;;4899405;28;20497;-86
2020/12/21 00:44:19;;;;;;;41.13;14.40;;;4.20;99.90;;;;;;4902102;28;20089;-86
2020/12/21 00:46:45;;;;;;;42.08;14.75;;;4.20;99.90;;;;;;4916795;28;20087;-87
2020/12/21 00:49:14;;;;;;;37.30;14.48;;;4.20;99.90;;;;;;4910673;28;20091;-86
2020/12/21 00:51:39;;;;;;;49.75;15.90;;;4.20;99.90;;;;;;4909655;28;20094;-86
2020/12/21 00:54:03;;;;;;;38.30;15.30;;;4.20;99.90;;;;;;4903131;28;20457;-87
2020/12/21 00:56:34;;;;;;;45.38;15.30;;;4.20;99.90;;;;;;4878690;28;20137;-87
2020/12/21 00:59:04;;;;;;;41.95;14.80;;;4.20;99.90;;;;;;4896582;28;20087;-86
2020/12/21 01:01:30;;;;;;;45.10;15.68;;;4.30;99.90;;;;;;4888706;28;20091;-86
2020/12/21 01:03:56;;;;;;;49.85;15.25;;;4.20;99.90;;;;;;4900031;28;20102;-86
2020/12/21 01:06:20;;;;;;;52.20;17.77;;;4.30;99.90;;;;;;4894599;28;20471;-86
2020/12/21 01:08:49;;;;;;;50.47;16.52;;;4.30;99.90;;;;;;4894558;28;20103;-85
2020/12/21 01:11:29;;;;;;;51.40;16.73;;;4.30;99.90;;;;;;4886429;28;20087;-86
2020/12/21 01:13:56;;;;;;;45.70;15.35;;;4.30;99.90;;;;;;4912641;28;20087;-85
2020/12/21 01:16:25;;;;;;;47.25;15.90;;;4.30;99.90;;;;;;4902611;28;20087;-86
2020/12/21 01:18:52;;;;;;;39.40;15.57;;;4.20;99.90;;;;;;4895162;28;20095;-87
2020/12/21 01:21:28;;;;;;;43.53;15.25;;;4.20;99.90;;;;;;4896056;28;20192;-86
2020/12/21 01:24:00;;;;;;;46.00;15.05;;;4.20;99.90;;;;;;4901394;28;20172;-86
2020/12/21 01:26:26;;;;;;;43.58;15.07;;;4.30;99.90;;;;;;4890230;28;20094;-87
2020/12/21 01:28:53;;;;;;;41.67;15.10;;;4.20;99.90;;;;;;4898711;28;20512;-87
2020/12/21 01:31:30;;;;;;;48.85;16.65;;;4.30;99.90;;;;;;4891467;28;20104;-86
2020/12/21 01:34:05;;;;;;;39.30;15.23;;;4.30;99.90;;;;;;4893082;28;20422;-87
2020/12/21 01:36:31;;;;;;;49.13;16.83;;;4.30;99.90;;;;;;4907567;28;20086;-86
2020/12/21 01:38:54;;;;;;;42.25;14.55;;;4.30;99.90;;;;;;4901699;28;20083;-87
2020/12/21 01:41:18;;;;;;;38.92;14.35;;;4.20;99.90;;;;;;4900221;28;20849;-86
2020/12/21 01:43:42;;;;;;;42.75;16.08;;;4.30;99.90;;;;;;4897663;28;20090;-86
2020/12/21 01:46:10;;;;;;;48.40;16.65;;;4.30;99.90;;;;;;4897781;28;20484;-86
2020/12/21 01:48:38;;;;;;;45.05;15.50;;;4.30;99.90;;;;;;4903330;28;20102;-86
2020/12/21 01:51:24;;;;;;;43.80;14.30;;;4.30;99.90;;;;;;4899391;28;20522;-87
2020/12/21 01:53:55;;;;;;;42.85;14.93;;;4.30;99.90;;;;;;4899114;28;20087;-86
2020/12/21 01:56:25;;;;;;;45.10;15.07;;;4.40;99.90;;;;;;4900734;28;20091;-86
2020/12/21 01:58:51;;;;;;;40.53;14.98;;;4.40;99.90;;;;;;4894893;28;20083;-86
2020/12/21 02:01:20;;;;;;;47.10;15.30;;;4.40;99.90;;;;;;4908024;28;20425;-86
2020/12/21 02:03:44;;;;;;;41.97;14.25;;;4.40;99.90;;;;;;4891555;28;20229;-86
2020/12/21 02:06:08;;;;;;;47.28;16.45;;;4.40;99.90;;;;;;4900508;28;20110;-86
2020/12/21 02:08:30;;;;;;;46.33;15.45;;;4.40;99.90;;;;;;4904747;28;21831;-86
2020/12/21 02:11:08;;;;;;;48.78;16.13;;;4.40;99.90;;;;;;4909118;28;20445;-86
2020/12/21 02:13:34;;;;;;;46.25;16.40;;;4.40;99.90;;;;;;4902962;28;20122;-86
2020/12/21 02:15:57;;;;;;;;;;;4.40;99.90;;;;;;4888404;28;20097;-86
2020/12/21 02:18:28;;;;;;;45.92;14.93;;;4.50;99.90;;;;;;4909946;28;19963;-85
2020/12/21 02:20:58;;;;;;;45.90;15.32;;;4.50;99.90;;;;;;4888203;28;20425;-86
2020/12/21 02:23:23;;;;;;;46.05;15.10;;;;;;;;;;4898807;28;20545;-86
2020/12/21 02:25:46;;;;;;;42.55;15.65;;;4.50;99.90;;;;;;4905043;28;20525;-87
2020/12/21 02:28:09;;;;;;;46.53;17.02;;;4.50;99.90;;;;;;4893881;28;20742;-86
2020/12/21 02:30:33;;;;;;;46.08;15.43;;;4.60;99.90;;;;;;4911698;28;20094;-86
2020/12/21 02:33:03;;;;;;;46.90;16.27;;;4.60;99.90;;;;;;4901885;28;20095;-87
2020/12/21 02:35:34;;;;;;;53.65;15.80;;;4.60;99.90;;;;;;4903052;28;20505;-86
2020/12/21 02:38:10;;;;;;;42.05;14.57;;;4.60;99.90;;;;;;4897140;28;20099;-86
2020/12/21 02:40:39;;;;;;;45.33;15.73;;;4.60;99.90;;;;;;4888587;28;20087;-86
2020/12/21 02:43:03;;;;;;;51.40;16.00;;;4.60;99.90;;;;;;4898349;28;20122;-86
2020/12/21 02:45:39;;;;;;;47.90;14.88;;;4.60;99.90;;;;;;4889131;28;20895;-86
2020/12/21 02:48:04;;;;;;;;;;;4.60;99.90;;;;;;4898337;28;20083;-87
2020/12/21 02:50:35;;;;;;;46.45;15.00;;;4.60;99.90;;;;;;4884763;28;20061;-86
2020/12/21 02:53:07;;;;;;;50.78;16.60;;;4.60;99.90;;;;;;4892310;28;20098;-86
2020/12/21 02:55:44;;;;;;;51.78;16.40;;;4.60;99.90;;;;;;4884940;28;20502;-86
2020/12/21 02:58:07;;;;;;;46.75;15.20;;;4.60;99.90;;;;;;4904204;28;20090;-87
2020/12/21 03:00:34;;;;;;;48.55;16.80;;;4.50;99.90;;;;;;4896731;28;20433;-87
2020/12/21 03:03:00;;;;;;;51.35;17.08;;;4.50;99.90;;;;;;4892013;28;20094;-86
2020/12/21 03:05:27;;;;;;;56.28;17.60;;;4.40;99.90;;;;;;4884610;28;20553;-86
2020/12/21 03:07:50;;;;;;;49.92;16.33;;;4.50;99.90;;;;;;4900912;28;20096;-86
2020/12/21 03:10:15;;;;;;;42.00;16.08;;;4.40;99.90;;;;;;4898654;28;20090;-86
2020/12/21 03:12:39;;;;;;;;;;;4.40;99.90;;;;;;4875421;28;20118;-86
2020/12/21 03:15:10;;;;;;;45.17;14.35;;;4.30;99.90;;;;;;4906277;28;20048;-86
2020/12/21 03:17:33;;;;;;;44.45;15.85;;;4.20;99.90;;;;;;4884111;28;20091;-87
2020/12/21 03:19:58;;;;;;;37.53;14.05;;;4.20;99.90;;;;;;4899816;28;20095;-87
2020/12/21 03:22:22;;;;;;;43.85;15.95;;;4.10;99.90;;;;;;4898229;28;20091;-86
2020/12/21 03:24:46;;;;;;;45.85;15.43;;;4.00;99.90;;;;;;4901589;28;20090;-86
2020/12/21 03:27:10;;;;;;;43.80;15.45;;;4.00;99.90;;;;;;4909696;28;20195;-87
2020/12/21 03:29:36;;;;;;;41.45;15.02;;;3.90;99.90;;;;;;4896252;28;20099;-86
2020/12/21 03:32:04;;;;;;;46.95;15.50;;;3.90;99.90;;;;;;4891086;28;20122;-86
2020/12/21 03:34:49;;;;;;;46.75;15.93;;;4.00;99.90;;;;;;4895020;28;20084;-86
2020/12/21 03:37:12;;;;;;;45.43;15.23;;;4.10;99.90;;;;;;4902162;28;20162;-86
2020/12/21 03:39:36;;;;;;;48.78;14.98;;;4.10;99.90;;;;;;4896109;28;20114;-86
2020/12/21 03:42:07;;;;;;;49.78;15.95;;;4.10;99.90;;;;;;4901331;28;20095;-86
2020/12/21 03:44:31;;;;;;;48.67;15.98;;;4.20;99.90;;;;;;4900431;28;20109;-88
2020/12/21 03:46:55;;;;;;;42.53;15.52;;;4.30;99.90;;;;;;4897997;28;20082;-86
2020/12/21 03:49:19;;;;;;;53.97;17.25;;;4.40;99.90;;;;;;4896307;28;20198;-87
2020/12/21 03:51:44;;;;;;;57.13;16.80;;;4.40;99.90;;;;;;4901980;28;20168;-86
2020/12/21 03:54:07;;;;;;;50.83;16.73;;;4.40;99.90;;;;;;4890817;28;20495;-87
2020/12/21 03:56:32;;;;;;;51.75;18.10;;;4.50;99.90;;;;;;4903140;28;20099;-86
2020/12/21 03:59:20;;;;;;;49.70;16.65;;;4.50;99.90;;;;;;4885997;28;20121;-86
2020/12/21 04:01:49;;;;;;;50.10;17.23;;;4.50;99.90;;;;;;4898660;28;20091;-87
2020/12/21 04:04:22;;;;;;;54.75;17.95;;;4.50;99.90;;;;;;4888073;28;20091;-86
2020/12/21 04:06:52;;;;;;;59.55;17.75;;;4.50;99.90;;;;;;4893396;28;20166;-86
2020/12/21 04:09:20;;;;;;;62.13;18.65;;;4.50;99.90;;;;;;4893810;28;20091;-86
2020/12/21 04:11:44;;;;;;;56.42;18.17;;;4.50;99.90;;;;;;4894547;28;20083;-86
2020/12/21 04:14:06;;;;;;;59.67;17.67;;;4.50;99.90;;;;;;4899330;28;20125;-86
2020/12/21 04:16:33;;;;;;;61.70;18.45;;;4.50;99.90;;;;;;4893103;28;20264;-85
2020/12/21 04:18:56;;;;;;;52.72;18.10;;;4.50;99.90;;;;;;4888798;28;20122;-86
2020/12/21 04:21:22;;;;;;;55.03;18.42;;;;;;;;;;4890022;28;20087;-85
2020/12/21 04:23:45;;;;;;;;;;;4.40;99.90;;;;;;4893069;28;20121;-86
2020/12/21 04:26:08;;;;;;;56.88;18.60;;;4.50;99.90;;;;;;4891957;28;19963;-87
2020/12/21 04:28:32;;;;;;;63.67;18.20;;;4.50;99.90;;;;;;4889830;28;20087;-85
2020/12/21 04:30:55;;;;;;;64.22;19.30;;;4.60;99.90;;;;;;4879445;28;20137;-86
2020/12/21 04:33:27;;;;;;;73.60;21.33;;;4.50;99.90;;;;;;4890859;28;20179;-86
2020/12/21 04:35:50;;;;;;;58.20;18.80;;;4.60;99.90;;;;;;4898197;28;20107;-85
2020/12/21 04:38:14;;;;;;;52.35;18.67;;;4.60;99.90;;;;;;4891483;28;20555;-86
2020/12/21 04:40:39;;;;;;;69.20;19.80;;;4.60;99.90;;;;;;4895491;28;20098;-87
2020/12/21 04:43:10;;;;;;;58.53;19.17;;;4.60;99.90;;;;;;4892780;28;20115;-86
2020/12/21 04:45:35;;;;;;;64.47;18.88;;;4.60;99.90;;;;;;4907503;28;20141;-86
2020/12/21 04:47:59;;;;;;;66.57;20.67;;;4.60;99.90;;;;;;4911858;28;20098;-86
2020/12/21 04:50:33;;;;;;;60.08;19.08;;;4.60;99.90;;;;;;4865968;28;20107;-87
2020/12/21 04:53:07;;;;;;;58.03;19.38;;;4.60;99.90;;;;;;4894812;28;20095;-87
2020/12/21 04:55:32;;;;;;;59.33;19.13;;;4.60;99.90;;;;;;4901502;28;20082;-87
2020/12/21 04:57:59;;;;;;;62.38;18.88;;;4.60;99.90;;;;;;4901830;28;20090;-87
2020/12/21 05:00:28;;;;;;;55.22;19.00;;;4.60;99.90;;;;;;4908940;28;20090;-87
2020/12/21 05:02:54;;;;;;;54.92;18.88;;;4.60;99.90;;;;;;4885120;28;20090;-85
2020/12/21 05:05:33;;;;;;;54.97;19.58;;;4.60;99.90;;;;;;4901001;28;20114;-86
2020/12/21 05:07:57;;;;;;;57.88;18.23;;;4.60;99.90;;;;;;4900647;28;20153;-87
2020/12/21 05:10:26;;;;;;;57.00;17.73;;;4.60;99.90;;;;;;4909608;28;20500;-87
2020/12/21 05:13:10;;;;;;;57.72;19.40;;;4.70;99.90;;;;;;4904803;28;20508;-87
2020/12/21 05:15:34;;;;;;;56.88;19.15;;;4.70;99.90;;;;;;4893504;28;20910;-86
2020/12/21 05:18:09;;;;;;;61.47;19.33;;;4.70;99.90;;;;;;4891077;28;20106;-87
2020/12/21 05:20:34;;;;;;;59.80;19.08;;;4.80;99.90;;;;;;4881513;28;20205;-86
2020/12/21 05:23:15;;;;;;;65.35;19.70;;;4.70;99.90;;;;;;4892567;28;20087;-87
2020/12/21 05:25:56;;;;;;;59.28;19.45;;;4.80;99.90;;;;;;4896311;28;20083;-85
2020/12/21 05:28:32;;;;;;;58.70;18.95;;;4.80;99.90;;;;;;4896292;28;20109;-88
2020/12/21 05:30:56;;;;;;;;;;;4.80;99.90;;;;;;4903455;28;20769;-86
2020/12/21 05:33:20;;;;;;;56.75;18.02;;;4.70;99.90;;;;;;4897479;28;20472;-85
2020/12/21 05:35:43;;;;;;;54.08;17.70;;;4.70;99.90;;;;;;4884642;28;20522;-85
2020/12/21 05:38:07;;;;;;;60.42;19.95;;;4.60;99.90;;;;;;4894298;28;20587;-87
2020/12/21 05:40:36;;;;;;;50.03;17.95;;;4.60;99.90;;;;;;4893072;28;20166;-87
2020/12/21 05:43:00;;;;;;;49.22;17.77;;;4.60;99.90;;;;;;4893508;28;21608;-87
2020/12/21 05:45:33;;;;;;;53.45;17.73;;;4.60;99.90;;;;;;4897487;28;20091;-88
2020/12/21 05:47:59;;;;;;;55.40;16.45;;;4.50;99.90;;;;;;4894773;28;20540;-88
2020/12/21 05:50:33;;;;;;;48.88;16.80;;;4.50;99.90;;;;;;4894752;28;20087;-86
2020/12/21 05:52:59;;;;;;;50.80;17.25;;;4.40;99.90;;;;;;4896413;28;20240;-85
2020/12/21 05:55:33;;;;;;;49.53;17.70;;;4.40;99.90;;;;;;4902836;28;20096;-85
2020/12/21 05:58:03;;;;;;;48.80;16.00;;;4.40;99.90;;;;;;4881919;28;20093;-87
2020/12/21 06:00:30;;;;;;;44.45;16.45;;;4.30;99.90;;;;;;4912378;28;20121;-87
2020/12/21 06:03:01;;;;;;;45.42;16.83;;;4.20;99.90;;;;;;4894030;28;20087;-86
2020/12/21 06:05:34;;;;;;;40.85;14.73;;;4.10;99.90;;;;;;4894731;28;20090;-87
2020/12/21 06:08:03;;;;;;;48.63;15.63;;;4.00;99.90;;;;;;4893632;28;20441;-87
2020/12/21 06:10:37;;;;;;;40.90;15.38;;;3.90;99.90;;;;;;4906504;28;20152;-87
2020/12/21 06:13:11;;;;;;;41.78;15.30;;;3.90;99.90;;;;;;4902599;28;20449;-87
2020/12/21 06:15:42;;;;;;;48.28;15.90;;;3.90;99.90;;;;;;4889521;28;20094;-86
2020/12/21 06:18:09;;;;;;;41.67;15.60;;;3.80;99.90;;;;;;4900161;28;20078;-87
2020/12/21 06:20:43;;;;;;;40.85;14.73;;;3.80;99.90;;;;;;4905349;28;20453;-87
2020/12/21 06:23:14;;;;;;;52.38;17.52;;;3.70;99.90;;;;;;4901273;28;20080;-87
2020/12/21 06:25:46;;;;;;;41.85;14.88;;;3.70;99.90;;;;;;4895124;28;20476;-88
2020/12/21 06:28:14;;;;;;;51.78;15.90;;;3.70;99.90;;;;;;4908757;28;20086;-88
2020/12/21 06:30:39;;;;;;;47.42;15.13;;;3.50;99.90;;;;;;4895531;28;20597;-86
2020/12/21 06:33:05;;;;;;;43.13;14.25;;;3.50;99.90;;;;;;4913800;28;20086;-87
2020/12/21 06:35:42;;;;;;;41.97;15.73;;;3.50;99.90;;;;;;4901432;28;20091;-86
2020/12/21 06:38:15;;;;;;;49.83;15.73;;;3.50;99.90;;;;;;4901037;28;20090;-87
2020/12/21 06:40:38;;;;;;;52.25;16.95;;;3.50;99.90;;;;;;4895283;28;20094;-87
2020/12/21 06:43:17;;;;;;;49.92;16.60;;;3.50;99.90;;;;;;4889560;28;21045;-86
2020/12/21 06:45:50;;;;;;;48.72;15.80;;;3.50;99.90;;;;;;4903904;28;20091;-86
2020/12/21 06:48:23;;;;;;;45.60;15.45;;;3.60;99.90;;;;;;4884180;28;20106;-86
2020/12/21 06:50:47;;;;;;;46.22;16.83;;;3.80;99.90;;;;;;4877432;28;20082;-87
2020/12/21 06:53:12;;;;;;;49.67;17.17;;;3.90;99.90;;;;;;4900308;28;20090;-87
2020/12/21 06:55:37;;;;;;;59.40;17.50;;;4.10;99.90;;;;;;4905675;28;20103;-87
2020/12/21 06:58:02;;;;;;;55.15;18.50;;;;;;;;;;4902839;28;20094;-87
2020/12/21 07:00:26;;;;;;;59.20;20.15;;;4.30;99.90;;;;;;4896889;28;20110;-86
2020/12/21 07:02:54;;;;;;;58.55;18.55;;;4.40;99.90;;;;;;4893097;28;20105;-87
2020/12/21 07:05:23;;;;;;;54.92;18.63;;;4.50;99.90;;;;;;4888313;28;20158;-86
2020/12/21 07:07:58;;;;;;;63.58;18.65;;;4.50;99.90;;;;;;4904078;28;20415;-87
2020/12/21 07:10:25;;;;;;;60.07;18.13;;;4.40;99.90;;;;;;4896912;28;20552;-87
2020/12/21 07:12:52;;;;;;;60.95;19.55;;;4.50;99.90;;;;;;4894309;28;20553;-87
2020/12/21 07:15:23;;;;;;;71.78;19.88;;;4.50;99.90;;;;;;4907388;28;20084;-87
2020/12/21 07:17:59;;;;;;;59.88;18.63;;;4.50;99.90;;;;;;4892532;28;20080;-87
2020/12/21 07:20:23;;;;;;;56.03;18.17;;;4.50;99.90;;;;;;4896865;28;20087;-86
2020/12/21 07:22:53;;;;;;;56.28;19.02;;;4.50;99.90;;;;;;4897225;28;20094;-87
2020/12/21 07:25:17;;;;;;;58.60;17.42;;;4.60;99.90;;;;;;4905999;28;20514;-87
2020/12/21 07:27:40;;;;;;;56.10;17.50;;;4.60;99.90;;;;;;4892512;28;20837;-87
2020/12/21 07:30:17;;;;;;;53.80;17.83;;;4.60;99.90;;;;;;4907600;28;20093;-87
2020/12/21 07:32:41;;;;;;;59.60;18.38;;;4.70;99.90;;;;;;4904549;28;20089;-88
2020/12/21 07:35:11;;;;;;;68.30;19.42;;;4.60;99.90;;;;;;4896983;28;20102;-87
2020/12/21 07:37:35;;;;;;;62.33;18.85;;;7.50;99.90;;;;;;4884029;28;20091;-87
2020/12/21 07:40:17;;;;;;;62.15;18.27;;;4.70;99.90;;;;;;4891697;28;20095;-86
2020/12/21 07:42:44;;;;;;;56.00;18.13;;;4.80;99.90;;;;;;4901687;28;20539;-87
2020/12/21 07:45:13;;;;;;;81.25;19.83;;;4.90;99.90;;;;;;4894564;28;20079;-87
2020/12/21 07:47:39;;;;;;;58.83;18.00;;;4.90;99.90;;;;;;4898962;28;20082;-86
2020/12/21 07:50:03;;;;;;;65.88;20.27;;;4.90;99.90;;;;;;4897204;28;20105;-87
2020/12/21 07:52:28;;;;;;;63.53;19.70;;;4.90;99.90;;;;;;4873290;28;20090;-87
2020/12/21 07:55:01;;;;;;;62.50;19.38;;;4.90;99.90;;;;;;4903984;28;20098;-86
2020/12/21 07:57:30;;;;;;;63.92;19.38;;;5.00;99.90;;;;;;4899080;28;20089;-88
2020/12/21 08:00:06;;;;;;;64.05;19.85;;;5.00;99.90;;;;;;4899814;28;20086;-87
2020/12/21 08:02:39;;;;;;;77.25;21.20;;;5.10;99.90;;;;;;4881471;28;20081;-90
2020/12/21 08:05:04;;;;;;;56.92;19.15;;;5.20;99.90;;;;;;4904582;28;20538;-88
2020/12/21 08:07:39;;;;;;;57.30;18.67;;;5.20;99.90;;;;;;4896129;28;20101;-87
2020/12/21 08:10:05;;;;;;;68.35;21.25;;;5.10;99.90;;;;;;4890355;28;20163;-87
2020/12/21 08:12:32;;;;;;;66.40;20.75;;;5.10;99.90;;;;;;4905481;28;20096;-87
2020/12/21 08:15:00;;;;;;;61.03;18.90;;;5.10;99.90;;;;;;4902381;28;20148;-87
2020/12/21 08:17:37;;;;;;;68.90;20.30;;;5.10;99.90;;;;;;4895829;28;20144;-87
2020/12/21 08:20:10;;;;;;;67.25;21.33;;;5.20;99.90;;;;;;4897811;28;20095;-87
2020/12/21 08:22:33;;;;;;;65.97;19.73;;;5.20;99.90;;;;;;4884433;28;20547;-87
2020/12/21 08:25:02;;;;;;;65.88;19.58;;;5.20;99.90;;;;;;4903996;28;20538;-88
2020/12/21 08:27:32;;;;;;;72.05;20.83;;;5.30;99.90;;;;;;4893720;28;20758;-88
2020/12/21 08:30:08;;;;;;;65.28;20.42;;;5.20;99.90;;;;;;4904958;28;20091;-88
2020/12/21 08:32:31;;;;;;;79.43;21.48;;;5.40;99.90;;;;;;4896375;28;20505;-88
2020/12/21 08:34:59;;;;;;;64.90;19.17;;;5.50;99.90;;;;;;4912145;28;20407;-87
2020/12/21 08:37:25;;;;;;;71.88;21.13;;;5.30;99.90;;;;;;4896563;28;20088;-88
2020/12/21 08:39:51;;;;;;;78.03;22.83;;;5.30;99.90;;;;;;4889026;28;20085;-88
2020/12/21 08:42:15;;;;;;;73.90;20.02;;;5.50;99.90;;;;;;4897655;28;20090;-89
2020/12/21 08:44:41;;;;;;;60.50;20.08;;;5.50;99.90;;;;;;4904082;28;20081;-87
2020/12/21 08:47:12;;;;;;;61.22;20.63;;;5.50;99.90;;;;;;4901254;28;20091;-89
2020/12/21 08:49:35;;;;;;;65.25;19.60;;;5.70;99.90;;;;;;4896786;28;20087;-88
2020/12/21 08:52:03;;;;;;;67.32;21.10;;;5.70;99.90;;;;;;4901842;28;20090;-88
2020/12/21 08:54:36;;;;;;;74.97;20.70;;;5.70;99.90;;;;;;4892239;28;20083;-88
2020/12/21 08:57:09;;;;;;;59.47;19.90;;;5.70;99.90;;;;;;4895054;28;20950;-88
2020/12/21 08:59:32;;;;;;;70.38;20.15;;;5.70;99.90;;;;;;4891557;28;20091;-90
2020/12/21 09:02:22;;;;;;;71.03;19.67;;;5.80;99.90;;;;;;4853244;28;20087;-88
2020/12/21 09:05:14;;;;;;;62.00;19.13;;;5.70;99.90;;;;;;4845662;28;20090;-87
2020/12/21 09:08:26;;;;;;;59.78;19.45;;;5.70;99.90;;;;;;4822790;28;20103;-87
2020/12/21 09:11:35;;;;;;;55.13;18.83;;;5.80;99.90;;;;;;4847173;28;20094;-87
2020/12/21 09:14:32;;;;;;;64.90;19.35;;;5.70;99.90;;;;;;4839029;28;20086;-87
2020/12/21 09:17:18;;;;;;;61.53;20.25;;;5.80;99.90;;;;;;4832866;28;20084;-88
2020/12/21 09:20:06;;;;;;;;;;;5.80;99.90;;;;;;4840500;28;20115;-87
2020/12/21 09:23:06;;;;;;;59.30;19.23;;;5.80;99.90;;;;;;4846759;28;19962;-89
2020/12/21 09:26:06;;;;;;;63.15;20.25;;;5.80;99.90;;;;;;4837200;28;20136;-87
2020/12/21 09:32:29;;;;;;;59.22;18.00;;;5.90;99.90;;;;;;4830843;28;20091;-87
2020/12/21 09:47:27;;;;;;;54.72;18.95;;;6.00;99.90;;;;;;4847697;28;20082;-87
2020/12/21 09:50:11;;;;;;;58.13;18.85;;;6.00;99.90;;;;;;4856494;28;20093;-87
2020/12/21 09:52:58;;;;;;;55.17;18.88;;;6.00;99.90;;;;;;4850729;28;20094;-86
2020/12/21 09:55:24;;;;;;;53.42;19.02;;;6.00;99.90;;;;;;4860868;28;20084;-87
2020/12/21 09:57:51;;;;;;;53.70;18.17;;;6.10;99.90;;;;;;4867454;28;20098;-86
2020/12/21 10:00:15;;;;;;;59.90;20.35;;;6.10;99.90;;;;;;4843693;28;20135;-86
2020/12/21 10:02:53;;;;;;;47.88;18.20;;;6.10;99.90;;;;;;4852203;28;20152;-87
2020/12/21 10:05:40;;;;;;;48.05;17.23;;;6.20;99.90;;;;;;4852016;28;20086;-86
2020/12/21 10:25:11;;;;;;;55.40;17.48;;;6.30;99.90;;;;;;4836682;28;20537;-87
2020/12/21 10:31:01;;;;;;;61.90;18.33;;;6.60;99.90;;;;;;4846474;28;20147;-87
2020/12/21 10:33:48;;;;;;;51.35;18.48;;;6.70;99.90;;;;;;4841774;28;20102;-87
2020/12/21 10:36:48;;;;;;;57.97;19.20;;;6.80;99.90;;;;;;4835628;28;20095;-87
2020/12/21 10:39:12;;;;;;;57.75;18.65;;;6.80;99.90;;;;;;4847339;28;20089;-86
2020/12/21 10:42:08;;;;;;;67.68;20.17;;;6.80;99.90;;;;;;4836481;28;20092;-87
2020/12/21 10:44:47;;;;;;;54.05;17.77;;;6.90;99.90;;;;;;4848195;28;20090;-87
2020/12/21 10:47:12;;;;;;;52.42;18.17;;;6.80;99.90;;;;;;4851820;28;20131;-86
2020/12/21 10:49:42;;;;;;;47.65;17.75;;;6.90;99.90;;;;;;4895216;28;20118;-87
2020/12/21 10:52:11;;;;;;;51.58;17.40;;;7.00;99.90;;;;;;4900880;28;20085;-86
2020/12/21 10:54:34;;;;;;;54.50;17.60;;;7.00;99.90;;;;;;4892979;28;20085;-86
2020/12/21 10:57:06;;;;;;;59.30;18.30;;;7.10;99.90;;;;;;4900051;28;20091;-86
2020/12/21 10:59:29;;;;;;;49.60;17.55;;;7.10;99.90;;;;;;4885811;28;20096;-87
2020/12/21 11:01:52;;;;;;;42.78;16.58;;;7.20;99.90;;;;;;4892592;28;20164;-87
2020/12/21 11:04:15;;;;;;;48.78;17.92;;;7.10;99.90;;;;;;4890219;28;20099;-86
2020/12/21 11:06:41;;;;;;;43.83;15.98;;;7.10;99.90;;;;;;4900629;28;20223;-88
2020/12/21 11:09:13;;;;;;;41.60;14.38;;;7.10;99.90;;;;;;4894251;28;20098;-85
2020/12/21 11:11:44;;;;;;;29.85;14.25;;;7.00;99.90;;;;;;4896267;28;20086;-86
2020/12/21 11:14:12;;;;;;;36.90;13.32;;;6.90;99.90;;;;;;4878709;28;20410;-86
2020/12/21 11:16:51;;;;;;;42.45;14.30;;;6.90;99.90;;;;;;4907516;28;20113;-85
2020/12/21 11:19:17;;;;;;;26.88;11.30;;;6.90;99.90;;;;;;4899437;28;20439;-86
2020/12/21 11:21:42;;;;;;;31.90;13.75;;;6.90;99.90;;;;;;4898509;28;20152;-86
2020/12/21 11:24:13;;;;;;;30.52;12.13;;;7.00;99.90;;;;;;4892499;28;20083;-85
2020/12/21 11:26:37;;;;;;;29.63;11.43;;;6.90;99.90;;;;;;4891492;28;20530;-85
2020/12/21 11:29:00;;;;;;;29.88;11.77;;;6.80;99.90;;;;;;4901743;28;20095;-86
2020/12/21 11:31:24;;;;;;;24.02;11.23;;;6.80;99.90;;;;;;4892372;28;20087;-85
2020/12/21 11:33:49;;;;;;;25.38;11.35;;;6.90;99.90;;;;;;4899903;28;20443;-85
2020/12/21 11:38:02;;;;;;;19.77;8.00;;;6.90;99.90;;;;;;4892893;27;24404;-85
2020/12/21 11:40:42;;;;;;;;;;;6.90;99.90;;;;;;4884041;28;20098;-86
2020/12/21 11:43:05;;;;;;;;;;;7.00;99.90;;;;;;4897999;28;19921;-85
2020/12/21 11:45:27;;;;;;;;;;;7.10;99.90;;;;;;4900084;28;22472;-85
2020/12/21 11:48:11;;;;;;;;;;;7.10;99.90;;;;;;4915811;28;20306;-86
2020/12/21 11:50:40;;;;;;;;;;;7.30;99.90;;;;;;4909101;28;20504;-86
2020/12/21 11:53:05;;;;;;;;;;;7.30;99.90;;;;;;4897264;28;19929;-86
2020/12/21 11:55:27;;;;;;;;;;;7.30;99.90;;;;;;4893638;28;19956;-85
2020/12/21 11:57:54;;;;;;;;;;;7.30;99.90;;;;;;4903950;28;19920;-86
2020/12/21 12:00:19;;;;;;;;;;;7.40;99.90;;;;;;4916263;28;19947;-85
2020/12/21 12:02:44;;;;;;;;;;;7.50;99.90;;;;;;4919648;28;19974;-85
2020/12/21 12:05:10;;;;;;;;;;;7.60;99.90;;;;;;4907664;28;19928;-85
2020/12/21 12:07:34;;;;;;;;;;;7.60;99.90;;;;;;4908748;28;20387;-85
2020/12/21 12:09:58;;;;;;;;;;;7.50;99.90;;;;;;4895977;28;20020;-86
2020/12/21 12:12:22;;;;;;;;;;;7.40;99.90;;;;;;4886308;28;19928;-86
2020/12/21 12:14:55;;;;;;;;;;;7.60;99.90;;;;;;4906866;28;19927;-87
2020/12/21 12:17:42;;;;;;;;;;;7.60;99.90;;;;;;4901638;28;19963;-86
2020/12/21 12:20:07;;;;;;;;;;;7.70;99.90;;;;;;4918216;28;19974;-86
2020/12/21 12:22:29;;;;;;;;;;;7.80;99.90;;;;;;4909320;28;24146;-86
2020/12/21 12:24:55;;;;;;;;;;;7.80;99.90;;;;;;4915136;28;19932;-86
2020/12/21 12:27:21;;;;;;;;;;;8.00;99.90;;;;;;4911003;28;19952;-86
2020/12/21 12:29:44;;;;;;;;;;;8.00;99.90;;;;;;4904983;28;19920;-86
2020/12/21 12:32:10;;;;;;;;;;;8.00;99.90;;;;;;4911236;28;19928;-85
2020/12/21 12:34:34;;;;;;;;;;;8.00;99.90;;;;;;4915405;28;19932;-86
2020/12/21 12:36:58;;;;;;;;;;;8.00;99.90;;;;;;4916952;28;19950;-85
2020/12/21 12:39:21;;;;;;;;;;;8.00;99.90;;;;;;4940286;28;19920;-85
2020/12/21 12:41:46;;;;;;;;;;;7.90;99.90;;;;;;4941171;28;19919;-85
2020/12/21 12:44:20;;;;;;;;;;;7.80;99.90;;;;;;4922224;28;19974;-85
2020/12/21 12:46:44;;;;;;;;;;;7.80;99.90;;;;;;4916429;28;19928;-85
2020/12/21 12:49:11;;;;;;;;;;;7.80;99.90;;;;;;4900031;28;22459;-85
2020/12/21 12:51:36;;;;;;;;;;;7.80;99.90;;;;;;4898013;28;19939;-86
2020/12/21 12:54:00;;;;;;;;;;;7.90;99.90;;;;;;4916690;28;22967;-86
2020/12/21 12:56:23;;;;;;;;;;;7.80;99.90;;;;;;4894099;28;19927;-86
2020/12/21 12:58:48;;;;;;;;;;;7.80;99.90;;;;;;4898270;28;20015;-86
2020/12/21 13:01:10;;;;;;;;;;;7.70;99.90;;;;;;4891772;28;19928;-85
2020/12/21 13:03:41;;;;;;;;;;;7.60;99.90;;;;;;4896807;28;19927;-85
2020/12/21 13:06:03;;;;;;;;;;;7.60;99.90;;;;;;4894398;28;19921;-86
2020/12/21 13:08:27;;;;;;;;;;;7.70;99.90;;;;;;4892656;28;19936;-86
2020/12/21 13:10:49;;;;;;;;;;;7.80;99.90;;;;;;4913432;28;19924;-85
2020/12/21 13:13:13;;;;;;;;;;;7.80;99.90;;;;;;4891038;28;19921;-86
2020/12/21 13:15:37;;;;;;;;;;;7.80;99.90;;;;;;4900231;28;19960;-85
2020/12/21 13:18:01;;;;;;;;;;;7.90;99.90;;;;;;4915992;28;19921;-86
2020/12/21 13:20:29;;;;;;;;;;;8.00;99.90;;;;;;4915207;28;19928;-87
2020/12/21 13:22:51;;;;;;;;;;;7.90;99.90;;;;;;4903759;28;19943;-86
2020/12/21 13:25:27;;;;;;;;;;;8.10;99.90;;;;;;4902068;28;20283;-86
2020/12/21 13:27:57;;;;;;;;;;;7.90;99.90;;;;;;4883781;28;19972;-86
2020/12/21 13:30:26;;;;;;;;;;;7.80;99.90;;;;;;4898837;28;23376;-86
2020/12/21 13:32:49;;;;;;;;;;;7.80;99.90;;;;;;4899195;28;19929;-85
2020/12/21 13:35:18;;;;;;;;;;;7.90;99.90;;;;;;4896107;28;19924;-85
2020/12/21 13:37:49;;;;;;;;;;;7.90;99.90;;;;;;4911364;28;20398;-85
2020/12/21 13:40:12;;;;;;;;;;;7.90;99.90;;;;;;4903864;28;19928;-85
2020/12/21 13:42:36;;;;;;;;;;;7.70;99.90;;;;;;4902449;28;19921;-86
2020/12/21 13:44:59;;;;;;;;;;;7.60;99.90;;;;;;4902833;28;19929;-86